createdAt,value
2023-05-02T00:02:18.043Z,9.46
2023-05-02T00:04:44.901Z,9.42
2023-05-02T00:07:11.956Z,9.71
2023-05-02T00:09:38.881Z,9.83
2023-05-02T00:12:05.707Z,9.81
2023-05-02T00:14:33.015Z,9.71
2023-05-02T00:17:01.209Z,9.59
2023-05-02T00:19:27.873Z,9.47
2023-05-02T00:21:54.605Z,9.31
2023-05-02T00:24:21.316Z,8.94
2023-05-02T00:26:48.073Z,8.39
2023-05-02T00:29:14.739Z,8.25
2023-05-02T00:31:41.624Z,8.42
2023-05-02T00:34:09.731Z,8.70
2023-05-02T00:36:36.804Z,8.84
2023-05-02T00:39:04.354Z,8.48
2023-05-02T00:41:31.290Z,8.57
2023-05-02T00:43:58.232Z,8.69
2023-05-02T00:46:25.072Z,8.54
2023-05-02T00:48:52.073Z,8.53
2023-05-02T00:51:20.454Z,8.54
2023-05-02T00:53:47.173Z,8.42
2023-05-02T00:56:13.866Z,8.41
2023-05-02T00:58:41.213Z,8.58
2023-05-02T01:01:26.429Z,8.68
2023-05-02T01:04:00.606Z,8.80
2023-05-02T01:06:36.939Z,8.85
2023-05-02T01:09:10.490Z,8.93
2023-05-02T01:11:44.319Z,8.90
2023-05-02T01:14:12.009Z,8.94
2023-05-02T01:16:40.668Z,8.99
2023-05-02T01:19:10.820Z,9.02
2023-05-02T01:21:39.513Z,8.95
2023-05-02T01:24:10.747Z,8.94
2023-05-02T01:26:45.878Z,8.88
2023-05-02T01:29:15.493Z,8.75
2023-05-02T01:31:44.303Z,8.65
2023-05-02T01:34:11.457Z,8.53
2023-05-02T01:36:42.897Z,8.52
2023-05-02T01:39:10.593Z,8.50
2023-05-02T01:41:38.646Z,8.53
2023-05-02T01:44:07.328Z,8.55
2023-05-02T01:46:38.553Z,8.54
2023-05-02T01:49:06.661Z,8.50
2023-05-02T01:51:35.135Z,8.44
2023-05-02T01:54:04.275Z,8.38
2023-05-02T01:56:32.804Z,8.15
2023-05-02T01:59:00.389Z,8.15
2023-05-02T02:01:28.986Z,8.36
2023-05-02T02:03:57.790Z,8.55
2023-05-02T02:06:25.001Z,8.62
2023-05-02T02:08:51.731Z,8.49
2023-05-02T02:11:21.236Z,8.72
2023-05-02T02:13:50.737Z,8.79
2023-05-02T02:16:21.707Z,8.74
2023-05-02T02:18:48.518Z,8.66
2023-05-02T02:21:18.996Z,8.35
2023-05-02T02:23:47.704Z,8.06
2023-05-02T02:26:14.613Z,8.18
2023-05-02T02:28:43.098Z,8.36
2023-05-02T02:31:09.778Z,8.48
2023-05-02T02:33:36.666Z,8.53
2023-05-02T02:36:07.516Z,8.52
2023-05-02T02:38:38.416Z,8.71
2023-05-02T02:41:11.353Z,8.79
2023-05-02T02:43:41.202Z,8.93
2023-05-02T02:46:14.937Z,8.96
2023-05-02T02:48:48.847Z,8.86
2023-05-02T02:51:22.483Z,8.74
2023-05-02T02:53:56.275Z,8.63
2023-05-02T02:56:27.887Z,8.38
2023-05-02T02:58:57.340Z,8.31
2023-05-02T03:01:25.556Z,8.28
2023-05-02T03:03:53.941Z,8.29
2023-05-02T03:06:20.882Z,8.20
2023-05-02T03:08:47.794Z,8.04
2023-05-02T03:11:20.763Z,8.21
2023-05-02T03:13:47.737Z,8.30
2023-05-02T03:16:36.751Z,8.40
2023-05-02T03:19:06.892Z,8.54
2023-05-02T03:21:33.942Z,8.61
2023-05-02T03:24:06.872Z,8.74
2023-05-02T03:26:35.127Z,8.62
2023-05-02T03:29:02.201Z,8.65
2023-05-02T03:31:34.690Z,8.72
2023-05-02T03:34:01.753Z,8.73
2023-05-02T03:36:28.986Z,8.36
2023-05-02T03:38:56.024Z,8.27
2023-05-02T03:41:24.756Z,8.39
2023-05-02T03:44:00.358Z,8.53
2023-05-02T03:46:28.398Z,8.53
2023-05-02T03:48:57.426Z,8.51
2023-05-02T03:51:24.063Z,8.53
2023-05-02T03:53:54.836Z,8.24
2023-05-02T03:56:21.698Z,8.14
2023-05-02T03:59:00.065Z,8.35
2023-05-02T04:01:27.607Z,8.59
2023-05-02T04:03:56.276Z,8.77
2023-05-02T04:06:25.852Z,8.76
2023-05-02T04:08:59.257Z,8.77
2023-05-02T04:11:30.424Z,8.89
2023-05-02T04:13:57.429Z,8.94
2023-05-02T04:16:25.679Z,8.93
2023-05-02T04:18:52.547Z,8.89
2023-05-02T04:21:19.755Z,8.85
2023-05-02T04:23:47.482Z,8.89
2023-05-02T04:26:14.988Z,8.91
2023-05-02T04:28:53.716Z,8.95
2023-05-02T04:31:20.691Z,8.93
2023-05-02T04:33:49.304Z,8.99
2023-05-02T04:36:19.968Z,9.12
2023-05-02T04:38:47.396Z,9.03
2023-05-02T04:41:16.208Z,9.02
2023-05-02T04:43:48.585Z,8.83
2023-05-02T04:46:16.423Z,8.78
2023-05-02T04:48:43.191Z,9.05
2023-05-02T04:51:11.458Z,9.48
2023-05-02T04:53:38.373Z,9.89
2023-05-02T04:56:05.611Z,9.87
2023-05-02T04:58:35.317Z,9.49
2023-05-02T05:01:05.129Z,10.34
2023-05-02T05:03:33.448Z,11.23
2023-05-02T05:06:00.514Z,10.85
2023-05-02T05:08:29.251Z,11.71
2023-05-02T05:10:57.546Z,12.69
2023-05-02T05:13:25.117Z,12.76
2023-05-02T05:15:52.729Z,13.35
2023-05-02T05:18:22.320Z,13.94
2023-05-02T05:20:49.024Z,14.00
2023-05-02T05:23:16.259Z,13.79
2023-05-02T05:25:45.735Z,13.48
2023-05-02T05:28:14.402Z,14.55
2023-05-02T05:30:41.337Z,15.58
2023-05-02T05:33:11.083Z,16.24
2023-05-02T05:35:38.244Z,16.98
2023-05-02T05:38:05.180Z,17.56
2023-05-02T05:40:34.734Z,18.26
2023-05-02T05:43:02.934Z,18.87
2023-05-02T05:45:33.958Z,19.35
2023-05-02T05:48:00.865Z,19.63
2023-05-02T05:50:31.117Z,19.89
2023-05-02T05:52:58.143Z,20.04
2023-05-02T05:55:24.941Z,20.39
2023-05-02T05:57:51.737Z,20.50
2023-05-02T06:00:20.543Z,20.90
2023-05-02T06:02:51.149Z,20.93
2023-05-02T06:05:26.420Z,20.56
2023-05-02T06:07:53.412Z,20.60
2023-05-02T06:10:20.144Z,20.55
2023-05-02T06:12:49.157Z,20.80
2023-05-02T06:15:18.438Z,20.98
2023-05-02T06:17:46.567Z,20.88
2023-05-02T06:20:16.044Z,20.76
2023-05-02T06:22:43.491Z,20.71
2023-05-02T06:25:10.158Z,20.78
2023-05-02T06:27:36.873Z,20.92
2023-05-02T06:30:04.092Z,20.90
2023-05-02T06:32:31.664Z,20.73
2023-05-02T06:35:00.301Z,20.74
2023-05-02T06:37:26.948Z,20.66
2023-05-02T06:39:53.578Z,21.07
2023-05-02T06:42:20.433Z,20.81
2023-05-02T06:44:47.091Z,20.23
2023-05-02T06:47:13.899Z,20.00
2023-05-02T06:49:40.873Z,20.56
2023-05-02T06:52:08.964Z,21.04
2023-05-02T06:54:35.706Z,20.89
2023-05-02T06:57:02.986Z,21.37
2023-05-02T06:59:29.645Z,21.84
2023-05-02T07:01:56.382Z,21.95
2023-05-02T07:04:23.131Z,21.37
2023-05-02T07:06:50.189Z,21.32
2023-05-02T07:09:18.395Z,21.53
2023-05-02T07:11:45.150Z,21.95
2023-05-02T07:14:11.859Z,22.27
2023-05-02T07:16:38.646Z,21.75
2023-05-02T07:19:06.837Z,21.73
2023-05-02T07:21:33.799Z,21.36
2023-05-02T07:24:01.460Z,20.80
2023-05-02T07:26:29.951Z,20.64
2023-05-02T07:28:56.593Z,21.01
2023-05-02T07:31:23.389Z,21.23
2023-05-02T07:33:50.327Z,20.97
2023-05-02T07:36:18.078Z,20.61
2023-05-02T07:38:44.817Z,20.41
2023-05-02T07:41:13.428Z,19.74
2023-05-02T07:43:41.590Z,19.73
2023-05-02T07:46:08.289Z,19.64
2023-05-02T07:48:35.142Z,19.77
2023-05-02T07:51:08.101Z,19.99
2023-05-02T07:53:34.922Z,20.29
2023-05-02T07:56:03.276Z,20.33
2023-05-02T07:58:30.041Z,20.39
2023-05-02T08:00:58.188Z,20.40
2023-05-02T08:03:24.931Z,20.25
2023-05-02T08:05:51.637Z,20.11
2023-05-02T08:08:18.318Z,19.83
2023-05-02T08:10:45.480Z,19.66
2023-05-02T08:13:12.432Z,18.92
2023-05-02T08:15:39.094Z,18.29
2023-05-02T08:18:07.296Z,18.15
2023-05-02T08:20:34.160Z,19.07
2023-05-02T08:23:01.062Z,19.43
2023-05-02T08:25:27.820Z,19.59
2023-05-02T08:27:54.488Z,18.88
2023-05-02T08:30:21.217Z,18.04
2023-05-02T08:32:48.124Z,17.52
2023-05-02T08:35:16.378Z,16.98
2023-05-02T08:37:43.089Z,17.09
2023-05-02T08:40:11.759Z,17.49
2023-05-02T08:42:41.371Z,17.55
2023-05-02T08:45:17.356Z,17.45
2023-05-02T08:47:44.812Z,17.33
2023-05-02T08:50:11.877Z,17.20
2023-05-02T08:52:40.281Z,17.58
2023-05-02T08:55:07.479Z,17.74
2023-05-02T08:57:34.215Z,17.44
2023-05-02T09:00:01.183Z,17.06
2023-05-02T09:02:40.620Z,16.87
2023-05-02T09:05:07.964Z,16.95
2023-05-02T09:07:44.879Z,17.15
2023-05-02T09:10:11.941Z,17.34
2023-05-02T09:12:38.935Z,17.22
2023-05-02T09:15:12.401Z,17.18
2023-05-02T09:17:40.007Z,17.18
2023-05-02T09:20:07.409Z,17.30
2023-05-02T09:22:34.732Z,17.47
2023-05-02T09:25:02.931Z,17.55
2023-05-02T09:27:29.670Z,17.53
2023-05-02T09:30:18.089Z,17.74
2023-05-02T09:32:44.831Z,17.87
2023-05-02T09:35:11.646Z,17.91
2023-05-02T09:37:38.367Z,17.83
2023-05-02T09:40:07.688Z,17.71
2023-05-02T09:42:34.292Z,17.62
2023-05-02T09:45:01.359Z,17.61
2023-05-02T09:47:28.262Z,17.80
2023-05-02T09:49:54.932Z,17.78
2023-05-02T09:52:24.596Z,17.83
2023-05-02T09:54:52.753Z,17.53
2023-05-02T09:57:20.955Z,17.23
2023-05-02T09:59:54.215Z,17.03
2023-05-02T10:02:21.960Z,16.82
2023-05-02T10:04:50.157Z,16.59
2023-05-02T10:07:17.309Z,16.41
2023-05-02T10:09:47.378Z,16.44
2023-05-02T10:12:15.094Z,16.54
2023-05-02T10:14:46.294Z,16.69
2023-05-02T10:17:14.330Z,16.80
2023-05-02T10:19:44.382Z,16.75
2023-05-02T10:22:12.676Z,16.94
2023-05-02T10:24:40.377Z,16.83
2023-05-02T10:27:07.686Z,16.84
2023-05-02T10:29:35.084Z,17.01
2023-05-02T10:32:04.428Z,16.92
2023-05-02T10:34:32.189Z,17.10
2023-05-02T10:37:02.212Z,17.22
2023-05-02T10:39:29.285Z,17.50
2023-05-02T10:41:57.800Z,17.58
2023-05-02T10:44:32.478Z,17.80
2023-05-02T10:46:59.703Z,17.90
2023-05-02T10:49:29.814Z,18.16
2023-05-02T10:51:56.611Z,18.41
2023-05-02T10:54:24.312Z,18.53
2023-05-02T10:57:05.994Z,18.44
2023-05-02T10:59:34.465Z,18.38
2023-05-02T11:02:01.928Z,18.31
2023-05-02T11:04:43.792Z,18.23
2023-05-02T11:07:18.748Z,18.43
2023-05-02T11:09:45.427Z,18.80
2023-05-02T11:12:32.046Z,18.60
2023-05-02T11:14:59.373Z,18.42
2023-05-02T11:17:26.850Z,18.30
2023-05-02T11:20:23.755Z,18.16
2023-05-02T11:22:52.342Z,17.92
2023-05-02T11:25:32.726Z,18.11
2023-05-02T11:27:59.551Z,18.56
2023-05-02T11:30:39.792Z,18.52
2023-05-02T11:33:16.060Z,18.88
2023-05-02T11:35:47.285Z,19.57
2023-05-02T11:38:16.396Z,19.85
2023-05-02T11:40:50.622Z,19.85
2023-05-02T11:43:18.419Z,20.13
2023-05-02T11:45:45.587Z,20.16
2023-05-02T11:48:13.143Z,19.52
2023-05-02T11:50:48.849Z,19.23
2023-05-02T11:53:18.785Z,18.84
2023-05-02T11:55:46.148Z,18.70
2023-05-02T11:58:13.878Z,18.62
2023-05-02T12:00:40.573Z,18.46
2023-05-02T12:03:07.393Z,18.51
2023-05-02T12:05:34.302Z,18.67
2023-05-02T12:08:02.615Z,19.07
2023-05-02T12:10:37.796Z,19.37
2023-05-02T12:13:04.966Z,19.90
2023-05-02T12:15:31.634Z,20.53
2023-05-02T12:17:58.540Z,20.51
2023-05-02T12:20:25.273Z,19.70
2023-05-02T12:22:51.935Z,19.31
2023-05-02T12:25:18.645Z,18.99
2023-05-02T12:27:59.911Z,19.62
2023-05-02T12:30:26.809Z,20.31
2023-05-02T12:32:56.316Z,20.34
2023-05-02T12:35:23.254Z,20.34
2023-05-02T12:37:50.178Z,20.17
2023-05-02T12:40:19.591Z,20.19
2023-05-02T12:42:58.851Z,20.16
2023-05-02T12:45:29.527Z,20.14
2023-05-02T12:47:58.552Z,20.23
2023-05-02T12:50:35.767Z,20.16
2023-05-02T12:53:03.936Z,20.28
2023-05-02T12:55:32.457Z,20.18
2023-05-02T12:58:02.479Z,20.32
2023-05-02T13:00:31.859Z,20.52
2023-05-02T13:02:58.836Z,20.36
2023-05-02T13:05:26.063Z,20.41
2023-05-02T13:07:52.928Z,20.34
2023-05-02T13:10:19.641Z,20.35
2023-05-02T13:12:47.177Z,19.98
2023-05-02T13:15:14.380Z,19.97
2023-05-02T13:17:42.621Z,19.51
2023-05-02T13:20:09.720Z,19.58
2023-05-02T13:22:39.148Z,19.58
2023-05-02T13:25:06.774Z,19.85
2023-05-02T13:27:34.350Z,20.14
2023-05-02T13:30:07.496Z,20.24
2023-05-02T13:32:35.882Z,20.42
2023-05-02T13:35:04.226Z,20.53
2023-05-02T13:37:31.346Z,20.58
2023-05-02T13:39:58.087Z,20.59
2023-05-02T13:42:24.754Z,20.67
2023-05-02T13:44:51.804Z,20.87
2023-05-02T13:47:18.562Z,20.56
2023-05-02T13:49:45.383Z,20.47
2023-05-02T13:52:13.530Z,20.57
2023-05-02T13:54:42.127Z,20.76
2023-05-02T13:57:08.792Z,20.95
2023-05-02T13:59:35.847Z,20.98
2023-05-02T14:02:02.706Z,21.14
2023-05-02T14:04:29.568Z,21.47
2023-05-02T14:06:56.328Z,21.45
2023-05-02T14:09:24.513Z,21.50
2023-05-02T14:11:51.279Z,21.52
2023-05-02T14:14:18.018Z,21.55
2023-05-02T14:16:44.734Z,21.64
2023-05-02T14:19:11.655Z,21.78
2023-05-02T14:21:38.877Z,22.01
2023-05-02T14:24:06.491Z,22.13
2023-05-02T14:26:34.613Z,22.14
2023-05-02T14:29:01.683Z,22.29
2023-05-02T14:31:28.492Z,22.10
2023-05-02T14:33:55.268Z,21.96
2023-05-02T14:36:21.979Z,21.47
2023-05-02T14:38:48.643Z,21.34
2023-05-02T14:41:15.309Z,21.54
2023-05-02T14:43:43.456Z,21.73
2023-05-02T14:46:10.456Z,21.81
2023-05-02T14:48:37.191Z,21.63
2023-05-02T14:51:06.601Z,21.42
2023-05-02T14:53:34.301Z,21.37
2023-05-02T14:56:01.135Z,21.52
2023-05-02T14:58:28.011Z,21.65
2023-05-02T15:00:56.247Z,21.50
2023-05-02T15:03:23.213Z,21.35
2023-05-02T15:05:49.999Z,21.40
2023-05-02T15:08:16.640Z,21.41
2023-05-02T15:10:43.222Z,21.39
2023-05-02T15:13:09.988Z,21.10
2023-05-02T15:15:37.487Z,20.62
2023-05-02T15:18:06.040Z,20.59
2023-05-02T15:20:32.914Z,20.74
2023-05-02T15:23:03.541Z,20.85
2023-05-02T15:25:31.166Z,20.88
2023-05-02T15:27:57.992Z,20.76
2023-05-02T15:30:25.239Z,20.77
2023-05-02T15:32:52.133Z,20.88
2023-05-02T15:35:20.679Z,20.79
2023-05-02T15:37:47.384Z,20.67
2023-05-02T15:40:14.537Z,20.60
2023-05-02T15:42:41.837Z,20.60
2023-05-02T15:45:11.306Z,20.54
2023-05-02T15:47:37.975Z,20.38
2023-05-02T15:50:05.426Z,20.28
2023-05-02T15:52:33.855Z,20.32
2023-05-02T15:55:01.676Z,20.29
2023-05-02T15:57:28.377Z,20.22
2023-05-02T15:59:55.168Z,20.12
2023-05-02T16:02:21.977Z,20.00
2023-05-02T16:04:48.969Z,19.86
2023-05-02T16:07:15.846Z,19.77
2023-05-02T16:09:43.902Z,19.63
2023-05-02T16:12:11.158Z,19.56
2023-05-02T16:14:37.900Z,19.53
2023-05-02T16:17:04.594Z,19.46
2023-05-02T16:19:31.580Z,19.42
2023-05-02T16:21:58.218Z,19.39
2023-05-02T16:24:25.084Z,19.39
2023-05-02T16:26:53.144Z,19.24
2023-05-02T16:29:19.788Z,19.16
2023-05-02T16:31:46.502Z,19.13
2023-05-02T16:34:13.208Z,19.19
2023-05-02T16:36:39.964Z,19.14
2023-05-02T16:39:06.758Z,19.16
2023-05-02T16:41:34.510Z,19.07
2023-05-02T16:44:02.654Z,18.95
2023-05-02T16:46:29.382Z,18.81
2023-05-02T16:48:56.170Z,18.75
2023-05-02T16:51:22.977Z,18.68
2023-05-02T16:53:49.791Z,18.64
2023-05-02T16:56:16.420Z,18.61
2023-05-02T16:58:43.134Z,18.52
2023-05-02T17:01:11.431Z,18.52
2023-05-02T17:03:39.506Z,18.49
2023-05-02T17:06:06.332Z,18.45
2023-05-02T17:08:33.150Z,18.38
2023-05-02T17:10:59.823Z,18.35
2023-05-02T17:13:26.638Z,18.35
2023-05-02T17:15:53.755Z,18.30
2023-05-02T17:18:22.181Z,18.25
2023-05-02T17:20:48.975Z,18.24
2023-05-02T17:23:16.185Z,18.21
2023-05-02T17:25:42.962Z,18.21
2023-05-02T17:28:09.962Z,18.20
2023-05-02T17:30:36.954Z,18.18
2023-05-02T17:33:03.973Z,18.14
2023-05-02T17:35:32.078Z,18.11
2023-05-02T17:37:58.785Z,17.98
2023-05-02T17:40:25.526Z,17.92
2023-05-02T17:42:52.236Z,17.85
2023-05-02T17:45:18.868Z,17.78
2023-05-02T17:47:45.884Z,17.72
2023-05-02T17:50:14.230Z,17.65
2023-05-02T17:52:42.320Z,17.56
2023-05-02T17:55:09.311Z,17.53
2023-05-02T17:57:36.417Z,17.49
2023-05-02T18:00:04.942Z,17.46
2023-05-02T18:02:33.530Z,17.45
2023-05-02T18:05:02.952Z,17.42
2023-05-02T18:07:30.145Z,17.35
2023-05-02T18:09:59.302Z,17.34
2023-05-02T18:12:26.007Z,17.32
2023-05-02T18:14:52.814Z,17.28
2023-05-02T18:17:20.883Z,17.27
2023-05-02T18:19:50.573Z,17.19
2023-05-02T18:22:19.640Z,17.13
2023-05-02T18:24:47.085Z,17.07
2023-05-02T18:27:15.345Z,17.04
2023-05-02T18:29:41.998Z,16.98
2023-05-02T18:32:08.816Z,16.93
2023-05-02T18:34:38.345Z,16.86
2023-05-02T18:37:05.858Z,16.83
2023-05-02T18:39:33.074Z,16.73
2023-05-02T18:42:01.434Z,16.59
2023-05-02T18:44:29.664Z,16.49
2023-05-02T18:46:59.174Z,16.41
2023-05-02T18:49:26.309Z,16.30
2023-05-02T18:51:53.043Z,16.21
2023-05-02T18:54:19.900Z,16.12
2023-05-02T18:56:46.917Z,16.05
2023-05-02T18:59:13.555Z,15.93
2023-05-02T19:01:41.790Z,15.82
2023-05-02T19:04:08.430Z,15.71
2023-05-02T19:06:35.172Z,15.59
2023-05-02T19:09:01.894Z,15.46
2023-05-02T19:11:28.681Z,15.32
2023-05-02T19:13:58.786Z,15.20
2023-05-02T19:16:27.144Z,15.13
2023-05-02T19:18:57.057Z,15.04
2023-05-02T19:21:23.940Z,14.93
2023-05-02T19:23:50.679Z,14.80
2023-05-02T19:26:17.596Z,14.74
2023-05-02T19:28:44.771Z,14.68
2023-05-02T19:31:11.951Z,14.60
2023-05-02T19:33:38.904Z,14.42
2023-05-02T19:36:07.311Z,14.24
2023-05-02T19:38:33.965Z,14.05
2023-05-02T19:41:00.999Z,13.89
2023-05-02T19:43:27.962Z,13.77
2023-05-02T19:45:56.828Z,13.63
2023-05-02T19:48:23.718Z,13.58
2023-05-02T19:50:50.386Z,13.46
2023-05-02T19:53:18.447Z,13.37
2023-05-02T19:55:45.101Z,13.23
2023-05-02T19:58:11.786Z,13.13
2023-05-02T20:00:38.445Z,13.03
2023-05-02T20:03:05.702Z,12.91
2023-05-02T20:05:32.494Z,12.81
2023-05-02T20:07:59.656Z,12.67
2023-05-02T20:10:27.685Z,12.59
2023-05-02T20:12:54.322Z,12.57
2023-05-02T20:15:21.866Z,12.51
2023-05-02T20:17:48.720Z,12.37
2023-05-02T20:20:15.642Z,12.31
2023-05-02T20:22:42.407Z,12.35
2023-05-02T20:25:11.450Z,12.46
2023-05-02T20:27:39.585Z,12.54
2023-05-02T20:30:08.222Z,12.72
2023-05-02T20:32:34.973Z,12.86
2023-05-02T20:35:01.724Z,13.00
2023-05-02T20:37:29.376Z,12.88
2023-05-02T20:39:56.570Z,12.58
2023-05-02T20:42:24.355Z,12.41
2023-05-02T20:44:56.867Z,12.43
2023-05-02T20:47:23.739Z,12.48
2023-05-02T20:49:50.498Z,12.60
2023-05-02T20:52:17.457Z,12.74
2023-05-02T20:54:44.400Z,12.66
2023-05-02T20:57:11.290Z,12.49
2023-05-02T20:59:38.091Z,12.49
2023-05-02T21:02:06.483Z,12.60
2023-05-02T21:04:33.461Z,12.71
2023-05-02T21:07:00.250Z,12.76
2023-05-02T21:09:27.095Z,12.82
2023-05-02T21:11:53.853Z,12.88
2023-05-02T21:14:24.245Z,12.86
2023-05-02T21:16:50.950Z,12.74
2023-05-02T21:19:19.860Z,12.60
2023-05-02T21:21:46.785Z,12.36
2023-05-02T21:24:13.417Z,12.13
2023-05-02T21:26:40.934Z,11.93
2023-05-02T21:29:08.152Z,11.76
2023-05-02T21:31:34.876Z,11.78
2023-05-02T21:34:01.525Z,11.88
2023-05-02T21:36:29.569Z,11.93
2023-05-02T21:38:56.303Z,11.97
2023-05-02T21:41:22.999Z,11.93
2023-05-02T21:43:49.692Z,11.79
2023-05-02T21:46:16.377Z,11.54
2023-05-02T21:48:42.996Z,11.30
2023-05-02T21:51:10.435Z,11.25
2023-05-02T21:53:38.417Z,11.07
2023-05-02T21:56:05.840Z,10.92
2023-05-02T21:58:32.626Z,10.55
2023-05-02T22:00:59.495Z,10.26
2023-05-02T22:03:27.531Z,10.30
2023-05-02T22:05:57.700Z,10.34
2023-05-02T22:08:24.832Z,10.48
2023-05-02T22:10:52.986Z,10.54
2023-05-02T22:13:19.644Z,10.68
2023-05-02T22:15:46.839Z,10.89
2023-05-02T22:18:14.190Z,11.01
2023-05-02T22:20:40.940Z,11.11
2023-05-02T22:23:07.975Z,11.16
2023-05-02T22:25:35.984Z,11.28
2023-05-02T22:28:06.893Z,11.31
2023-05-02T22:30:34.055Z,11.19
2023-05-02T22:33:02.395Z,11.15
2023-05-02T22:35:29.477Z,11.23
2023-05-02T22:37:58.958Z,11.29
2023-05-02T22:40:25.685Z,11.27
2023-05-02T22:42:52.481Z,11.25
2023-05-02T22:45:20.718Z,11.27
2023-05-02T22:47:47.400Z,11.19
2023-05-02T22:50:14.393Z,11.13
2023-05-02T22:52:41.038Z,10.94
2023-05-02T22:55:09.352Z,11.02
2023-05-02T22:57:36.289Z,11.08
2023-05-02T23:00:03.587Z,11.12
2023-05-02T23:02:32.047Z,11.13
2023-05-02T23:04:58.719Z,11.18
2023-05-02T23:07:25.693Z,11.24
2023-05-02T23:09:52.604Z,11.28
2023-05-02T23:12:19.275Z,11.25
2023-05-02T23:14:46.266Z,11.27
2023-05-02T23:17:13.149Z,11.28
2023-05-02T23:19:41.226Z,11.25
2023-05-02T23:22:07.845Z,11.26
2023-05-02T23:24:34.470Z,11.22
2023-05-02T23:27:01.321Z,11.11
2023-05-02T23:29:28.610Z,10.91
2023-05-02T23:31:55.615Z,10.78
2023-05-02T23:34:22.330Z,10.76
2023-05-02T23:36:51.490Z,10.67
2023-05-02T23:39:18.451Z,10.56
2023-05-02T23:41:45.165Z,10.50
2023-05-02T23:44:11.858Z,10.41
2023-05-02T23:46:38.533Z,10.26
2023-05-02T23:49:05.241Z,10.00
2023-05-02T23:51:32.242Z,10.06
2023-05-02T23:54:00.415Z,9.96
2023-05-02T23:56:27.581Z,9.94
2023-05-02T23:58:54.264Z,10.07
